Latest Coastal Weather Observations for Evans Head

IDN60701

Issued at 12:41 pm EDT Thursday 18 October 2018 (issued every 10 minutes, with the page automatically refreshed every 10 minutes)

About coastal observations | Map of coastal stations | Coastal observations for NSW | Marine services | Other Formats
Station Details ID: 058212 Name: EVANS HEAD RAAF BOMBING RANGE AWS Lat: -29.18 Lon: 153.40 Height: 62.5 m
Data from the previous 72 hours. | See also: Recent months at Evans Head
Date/Time
EDT
Wind Sea
Height
m
Swell Vis
km
Cloud Weather Temp
°C
Press
hPa
Rain since
9am
mm
Dir  Spd
kts
Gust
kts
Height
m
Period
s
Dir
18/12:30pm NE 11 18 - - - - - - - 23.6 1018.9 0.0
18/12:00pm NE 10 15 - - - - - - - 23.4 1019.2 0.0
18/11:30am NE 11 19 - - - - - - - 22.5 1019.4 0.0
18/11:00am NE 12 18 - - - - - - - 23.1 1019.5 0.0
18/10:30am ENE 12 17 - - - - - - - 22.9 1019.5 0.0
18/10:00am NE 9 15 - - - - - - - 22.6 1019.5 0.0
18/09:30am NNE 9 14 - - - - - - - 22.2 1019.5 0.0
18/09:00am NNE 7 13 - - - - - - - 22.9 1019.4 7.8
18/08:30am NNE 8 15 - - - - - - - 21.8 1019.1 7.8
18/08:00am NE 8 13 - - - - - - - 21.1 1018.8 7.8
18/07:30am NNE 7 11 - - - - - - - 19.7 1018.6 7.8
18/07:00am NNE 7 11 - - - - - - - 19.2 1018.3 7.8
18/06:30am NNE 6 9 - - - - - - - 18.9 1018.1 7.8
18/06:00am NNE 8 15 - - - - - - Recent precip. 18.8 1017.8 7.8
18/05:30am NNE 7 12 - - - - - - - 18.9 1017.4 7.8
18/05:00am NNE 6 10 - - - - - - - 19.0 1017.0 7.4
18/04:30am NNE 7 9 - - - - - - - 19.0 1016.7 7.4
18/04:00am NNE 7 10 - - - - - - - 19.1 1016.7 7.2
18/03:30am NNE 6 10 - - - - - - - 19.1 1016.9 7.2
18/03:00am NNE 7 11 - - - - - - - 19.0 1017.0 7.2
18/02:30am NNE 7 13 - - - - - - - 18.8 1016.8 7.2
18/02:00am NNE 8 13 - - - - - - - 18.9 1016.9 7.2
18/01:30am NNE 6 9 - - - - - - - 18.9 1017.4 7.2
18/01:00am N 9 15 - - - - - - - 18.7 1017.6 7.2
18/12:30am N 10 19 - - - - - - - 18.8 1017.9 4.6
18/12:00am NNE 8 14 - - - - - - - 19.4 1018.1 0.4
 
Date/Time
EDT
Wind Sea
Height
m
Swell Vis
km
Cloud Weather Temp
°C
Press
hPa
Rain since
9am
mm
Dir  Spd
kts
Gust
kts
Height
m
Period
s
Dir
17/11:30pm NNE 6 11 - - - - - - - 19.6 1018.1 0.4
17/11:00pm NNE 6 9 - - - - - - - 19.7 1018.0 0.4
17/10:30pm NE 5 9 - - - - - - - 19.6 1018.0 0.4
17/10:00pm NE 6 9 - - - - - - - 19.8 1018.1 0.4
17/09:30pm NNE 5 9 - - - - - - - 19.4 1018.1 0.4
17/09:00pm NE 7 12 - - - - - - - 19.8 1017.7 0.4
17/08:30pm NE 7 10 - - - - - - - 19.9 1017.4 0.4
17/08:00pm NE 7 12 - - - - - - - 20.0 1017.3 0.4
17/07:30pm NE 8 13 - - - - - - - 19.9 1016.9 0.4
17/07:00pm ENE 8 11 - - - - - - - 20.1 1016.8 0.4
17/06:30pm ENE 8 14 - - - - - - - 20.3 1016.4 0.4
17/06:00pm ENE 9 12 - - - - - - - 20.7 1016.2 0.4
17/05:30pm ENE 10 13 - - - - - - - 21.4 1016.1 0.4
17/05:00pm ENE 9 14 - - - - - - - 21.5 1016.0 0.4
17/04:30pm ENE 11 15 - - - - - - - 22.4 1016.0 0.2
17/04:00pm ENE 11 14 - - - - - - - 22.9 1015.9 0.2
17/03:30pm E 9 15 - - - - - - - 22.4 1016.3 0.2
17/03:00pm E 10 14 - - - - - - - 22.5 1016.5 0.2
17/02:30pm ENE 11 18 - - - - - - - 22.7 1016.8 0.2
17/02:00pm ENE 12 17 - - - - - - - 22.7 1017.1 0.2
17/01:30pm ENE 10 14 - - - - - - - 23.4 1017.3 0.2
17/01:00pm ENE 9 13 - - - - - - - 23.0 1017.6 0.2
17/12:30pm ENE 11 15 - - - - - - - 22.2 1017.8 0.2
17/12:00pm E 9 13 - - - - - - - 23.1 1018.3 0.2
17/11:30am ENE 10 14 - - - - - - - 22.6 1018.5 0.2
17/11:00am ENE 9 13 - - - - - - - 22.3 1018.9 0.2
17/10:30am E 9 13 - - - - - - - 22.1 1018.9 0.2
17/10:00am ENE 6 9 - - - - - - - 20.5 1018.9 0.2
17/09:30am N 5 9 - - - - - - - 20.3 1019.1 0.0
17/09:00am NE 6 8 - - - - - - Recent precip. 19.5 1019.0 16.4
17/08:30am E 7 13 - - - - - - - 19.6 1018.7 16.4
17/08:00am NNE 4 6 - - - - - - - 19.9 1018.7 16.2
17/07:30am NE 5 8 - - - - - - - 19.7 1018.4 16.0
17/07:00am NE 4 6 - - - - - - - 19.3 1018.2 16.0
17/06:30am NE 6 9 - - - - - - - 19.2 1017.7 16.0
17/06:00am ENE 6 9 - - - - - - - 18.8 1017.3 16.0
17/05:30am ENE 4 6 - - - - - - - 18.6 1017.2 16.0
17/05:00am CALM 0 2 - - - - - - - 18.4 1017.0 16.0
17/04:30am CALM 0 0 - - - - - - - 18.4 1017.1 16.0
17/04:00am CALM 0 0 - - - - - - - 18.4 1017.1 16.0
17/03:30am CALM 0 0 - - - - - - - 18.5 1017.3 16.0
17/03:00am NNW 4 5 - - - - - - Recent precip. 18.5 1017.3 15.4
17/02:30am NNW 4 5 - - - - - - - 18.6 1017.6 15.4
17/02:00am N 5 7 - - - - - - - 18.6 1017.6 14.2
17/01:30am N 5 7 - - - - - - - 18.9 1017.6 13.4
17/01:00am N 5 7 - - - - - - - 19.1 1017.9 13.4
17/12:30am ENE 5 7 - - - - - - - 19.3 1018.0 10.2
17/12:00am E 5 7 - - - - - - - 19.2 1018.1 10.2
 
Date/Time
EDT
Wind Sea
Height
m
Swell Vis
km
Cloud Weather Temp
°C
Press
hPa
Rain since
9am
mm
Dir  Spd
kts
Gust
kts
Height
m
Period
s
Dir
16/11:30pm ESE 8 10 - - - - - - - 19.3 1018.3 10.2
16/11:00pm ESE 9 12 - - - - - - - 19.2 1018.5 10.2
16/10:30pm ESE 8 11 - - - - - - - 19.3 1018.6 10.2
16/10:00pm ESE 9 12 - - - - - - - 19.4 1018.7 10.2
16/09:30pm ESE 8 10 - - - - - - - 19.7 1018.7 10.2
16/09:00pm ESE 8 11 - - - - - - - 19.5 1018.7 10.2
16/08:30pm SE 7 9 - - - - - - - 19.4 1018.7 10.2
16/08:00pm SE 6 7 - - - - - - - 19.5 1018.7 10.2
16/07:30pm SE 6 8 - - - - - - - 19.5 1018.5 10.2
16/07:00pm ESE 8 10 - - - - - - - 19.6 1018.1 10.2
16/06:30pm ESE 8 11 - - - - - - - 19.8 1017.8 10.2
16/06:00pm ESE 9 12 - - - - - - - 20.1 1017.6 10.2
16/05:30pm ESE 10 13 - - - - - - - 20.2 1017.7 10.2
16/05:00pm SE 11 14 - - - - - - - 20.4 1017.4 10.2
16/04:30pm ESE 11 15 - - - - - - - 20.0 1017.4 10.2
16/04:00pm SE 11 14 - - - - - - - 21.1 1017.5 10.2
16/03:30pm ESE 10 15 - - - - - - - 21.1 1017.7 10.2
16/03:00pm ESE 10 13 - - - - - - - 20.8 1017.9 10.2
16/02:30pm SE 12 17 - - - - - - - 21.5 1018.2 10.2
16/02:00pm SE 14 19 - - - - - - - 20.6 1018.5 10.2
16/01:30pm ESE 13 18 - - - - - - - 21.0 1018.9 10.2
16/01:00pm ESE 11 16 - - - - - - - 20.0 1019.2 10.2
16/12:30pm ESE 10 15 - - - - - - - 19.4 1019.6 10.0
16/12:00pm ESE 12 15 - - - - - - Rain 18.5 1019.9 8.4
16/11:30am ESE 12 18 - - - - - - - 19.1 1019.9 6.4
16/11:00am ESE 15 20 - - - - - - - 19.2 1020.0 4.8
16/10:30am SE 13 17 - - - - - - - 20.1 1020.2 0.0
16/10:00am SE 16 21 - - - - - - - 20.6 1020.3 0.0
16/09:30am ESE 15 19 - - - - - - - 20.0 1020.4 0.0
16/09:00am ESE 14 21 - - - - - - - 19.6 1020.2 9.0
16/08:30am ESE 14 20 - - - - - - - 19.2 1020.0 9.0
16/08:00am ESE 13 19 - - - - - - - 18.9 1019.7 9.0
16/07:30am SE 15 20 - - - - - - - 18.5 1019.6 9.0
16/07:18am ESE 15 25 - - - - - - - 18.4 1019.4 9.0
16/07:00am ESE 12 17 - - - - - - - 18.4 1019.4 9.0
16/06:30am ESE 18 22 - - - - - - - 18.1 1019.0 8.6
16/06:00am ESE 11 18 - - - - - - Rain 18.4 1018.8 6.0
16/05:30am ESE 13 18 - - - - - - - 18.4 1018.6 2.6
16/05:00am SE 14 18 - - - - - - - 18.0 1018.5 2.6
16/04:30am ESE 16 20 - - - - - - - 18.6 1018.4 2.2
16/04:00am ESE 16 22 - - - - - - - 18.3 1018.4 2.2
16/03:30am ESE 17 24 - - - - - - - 18.6 1018.6 2.2
16/03:00am ESE 15 20 - - - - - - - 19.2 1019.0 2.2
16/02:30am ESE 13 19 - - - - - - - 19.2 1019.3 2.2
16/02:00am ESE 16 20 - - - - - - - 19.0 1019.7 2.2
16/01:30am ESE 15 20 - - - - - - - 19.0 1020.1 2.2
16/01:00am E 13 17 - - - - - - - 19.0 1020.5 2.2
16/12:30am E 15 20 - - - - - - - 18.6 1021.0 2.2
16/12:00am E 11 17 - - - - - - Recent precip. 18.7 1021.3 2.2
 
Date/Time
EDT
Wind Sea
Height
m
Swell Vis
km
Cloud Weather Temp
°C
Press
hPa
Rain since
9am
mm
Dir  Spd
kts
Gust
kts
Height
m
Period
s
Dir
15/11:30pm E 13 19 - - - - - - - 19.3 1021.3 2.0
15/11:00pm E 14 20 - - - - - - - 19.4 1021.4 2.0
15/10:30pm E 14 21 - - - - - - - 19.2 1021.5 2.0
15/10:00pm E 15 22 - - - - - - - 19.2 1021.4 2.0
15/09:30pm E 15 24 - - - - - - - 19.3 1021.3 2.0
15/09:00pm E 16 21 - - - - - - - 19.2 1021.1 2.0
15/08:30pm E 16 27 - - - - - - - 18.4 1020.8 2.0
15/08:25pm E 17 27 - - - - - - - 18.9 1020.8 2.0
15/08:00pm E 15 22 - - - - - - - 19.4 1020.6 2.0
15/07:30pm E 16 22 - - - - - - - 19.4 1020.4 2.0
15/07:00pm E 15 22 - - - - - - - 19.2 1020.1 2.0
15/06:30pm E 15 23 - - - - - - - 18.8 1020.0 2.0
15/06:00pm E 15 21 - - - - - - Recent precip. 19.2 1019.8 2.0
15/05:30pm E 16 21 - - - - - - - 18.6 1019.8 2.0
15/05:00pm E 16 22 - - - - - - - 19.1 1019.4 1.8
15/04:30pm E 17 25 - - - - - - - 19.8 1019.2 1.6
15/04:00pm E 16 22 - - - - - - - 19.3 1019.0 1.6
15/03:36pm E 15 27 - - - - - - - 18.9 1019.1 1.2
15/03:30pm E 15 20 - - - - - - - 19.4 1019.1 1.2
15/03:06pm ESE 18 28 - - - - - - - 19.6 1019.2 1.0
15/03:00pm ESE 17 22 - - - - - - Recent precip. 20.0 1019.2 1.0
15/02:32pm E 17 27 - - - - - - - 20.0 1019.5 1.0
15/02:30pm E 18 27 - - - - - - - 20.0 1019.5 1.0
15/02:03pm ESE 18 29 - - - - - - - 19.9 1019.6 0.8
15/02:00pm ESE 18 25 - - - - - - - 20.4 1019.7 0.8
15/01:47pm E 15 26 - - - - - - - 20.0 1019.9 0.8
15/01:30pm ESE 19 25 - - - - - - - 20.1 1020.0 0.8
15/01:00pm ESE 17 25 - - - - - - - 20.1 1020.2 0.8

Other Formats:

Comma delimited format used in spreadsheet applications
http://www.bom.gov.au/fwo/IDN60701/IDN60701.94598.axf

JavaScript Object Notation format (JSON) in row-major order
http://www.bom.gov.au/fwo/IDN60701/IDN60701.94598.json